Time;durP1;ratioP1;P1;durP2;ratioP2;P2;SDS_P1;SDS_P2;PMS_P1;PMS_P2;Temp;Humidity;BMP_temperature;BMP_pressure;BME280_temperature;BME280_humidity;BME280_pressure;Samples;Min_cycle;Max_cycle;Signal;HPM_P1;HPM_P2
2022/01/21 00:01:27;;;;;;;12.95;1.10;;;3.00;99.90;;;;;;4972690;28;20085;-78
2022/01/21 00:03:54;;;;;;;14.30;1.45;;;3.00;99.90;;;;;;4972500;28;20169;-76
2022/01/21 00:06:20;;;;;;;17.02;2.17;;;3.00;99.90;;;;;;4974390;28;20019;-78
2022/01/21 00:08:48;;;;;;;15.95;1.73;;;3.00;99.90;;;;;;4977396;28;20430;-75
2022/01/21 00:11:15;;;;;;;7.80;1.83;;;3.00;99.90;;;;;;4975906;28;20480;-74
2022/01/21 00:13:42;;;;;;;9.02;1.48;;;3.00;99.90;;;;;;4976415;28;20101;-74
2022/01/21 00:16:14;;;;;;;8.55;1.40;;;3.00;99.90;;;;;;4976135;28;20027;-80
2022/01/21 00:18:51;;;;;;;7.43;1.20;;;3.00;99.90;;;;;;4977802;28;20105;-78
2022/01/21 00:32:16;;;;;;;9.40;1.48;;;3.00;99.90;;;;;;4977139;28;20042;-75
2022/01/21 00:34:41;;;;;;;14.75;2.13;;;3.00;99.90;;;;;;4977031;28;20431;-77
2022/01/21 00:37:07;;;;;;;22.33;1.52;;;3.00;99.90;;;;;;4976180;28;20522;-76
2022/01/21 00:39:34;;;;;;;8.98;1.30;;;3.00;99.90;;;;;;4967098;28;20058;-75
2022/01/21 00:44:38;;;;;;;12.73;1.70;;;3.00;99.90;;;;;;4976542;28;20046;-76
2022/01/21 00:47:05;;;;;;;8.55;2.08;;;3.00;99.90;;;;;;4976642;28;20034;-75
2022/01/21 00:49:31;;;;;;;16.55;2.15;;;3.10;99.90;;;;;;4976653;28;20059;-76
2022/01/21 00:51:56;;;;;;;6.65;0.85;;;3.00;99.90;;;;;;4975468;28;20518;-76
2022/01/21 00:54:22;;;;;;;10.10;1.70;;;3.10;99.90;;;;;;4975084;28;20467;-77
2022/01/21 00:56:48;;;;;;;6.28;1.30;;;3.10;99.90;;;;;;4976521;28;20439;-76
2022/01/21 00:59:14;;;;;;;6.80;1.02;;;3.10;99.90;;;;;;4975335;28;20122;-76
2022/01/21 01:01:40;;;;;;;7.32;1.02;;;3.10;99.90;;;;;;4975221;28;20058;-74
2022/01/21 01:04:06;;;;;;;9.55;1.17;;;3.10;99.90;;;;;;4975090;28;20023;-75
2022/01/21 01:06:32;;;;;;;8.90;1.83;;;3.10;99.90;;;;;;4976383;28;20092;-77
2022/01/21 01:08:58;;;;;;;9.65;2.25;;;3.00;99.90;;;;;;4972330;28;20046;-76
2022/01/21 01:22:06;;;;;;;19.65;2.70;;;2.90;99.90;;;;;;4975338;28;20154;-76
2022/01/21 01:29:57;;;;;;;6.75;1.20;;;2.90;99.90;;;;;;4975734;28;20049;-76
2022/01/21 01:32:24;;;;;;;4.88;1.05;;;3.00;99.90;;;;;;4974617;28;20026;-76
2022/01/21 01:34:51;;;;;;;11.27;1.30;;;2.90;99.90;;;;;;4976228;28;20037;-77
2022/01/21 01:37:35;;;;;;;7.32;1.00;;;2.90;99.90;;;;;;4974587;28;20025;-77
2022/01/21 01:40:15;;;;;;;4.25;1.50;;;2.90;99.90;;;;;;4976273;28;20067;-77
2022/01/21 01:50:47;;;;;;;;;;;2.80;99.90;;;;;;4964377;28;20122;-77
2022/01/21 01:53:14;;;;;;;7.47;1.48;;;2.80;99.90;;;;;;4974779;28;20276;-77
2022/01/21 01:55:40;;;;;;;6.45;0.70;;;2.80;99.90;;;;;;4974277;28;20383;-77
2022/01/21 01:58:06;;;;;;;5.88;0.85;;;2.80;99.90;;;;;;4974064;28;20431;-76
2022/01/21 02:00:32;;;;;;;6.30;0.93;;;2.80;99.90;;;;;;4975364;28;20027;-76
2022/01/21 02:03:09;;;;;;;10.75;1.50;;;2.90;99.90;;;;;;4974763;28;20054;-76
2022/01/21 02:05:35;;;;;;;27.63;1.95;;;2.90;99.90;;;;;;4975388;28;20026;-76
2022/01/21 02:08:01;;;;;;;3.10;1.10;;;2.90;99.90;;;;;;4975234;28;20106;-76
2022/01/21 02:10:27;;;;;;;4.82;0.80;;;3.00;99.90;;;;;;4975131;28;20066;-77
2022/01/21 02:13:03;;;;;;;4.05;0.77;;;3.10;99.90;;;;;;4975530;28;20475;-77
2022/01/21 02:15:29;;;;;;;5.15;1.48;;;3.10;99.90;;;;;;4975664;28;20034;-78
2022/01/21 02:23:26;;;;;;;7.43;1.65;;;2.90;99.90;;;;;;4982978;28;20569;-78
2022/01/21 02:25:52;;;;;;;4.72;0.70;;;2.90;99.90;;;;;;4983998;28;20023;-76
2022/01/21 02:28:19;;;;;;;4.18;0.90;;;2.90;99.90;;;;;;4984401;28;20029;-78
2022/01/21 02:30:55;;;;;;;5.63;0.75;;;2.90;99.90;;;;;;4984379;28;20031;-77
2022/01/21 02:33:21;;;;;;;13.07;0.98;;;2.90;99.90;;;;;;4984258;28;20030;-78
2022/01/21 02:35:47;;;;;;;7.00;0.95;;;2.90;99.90;;;;;;4983499;28;20070;-77
2022/01/21 02:38:13;;;;;;;5.30;0.85;;;2.90;99.90;;;;;;4987953;28;20054;-78
2022/01/21 02:40:38;;;;;;;6.07;0.93;;;2.90;99.90;;;;;;4987757;28;20027;-77
2022/01/21 02:43:04;;;;;;;4.38;0.80;;;2.90;99.90;;;;;;4985852;28;20041;-77
2022/01/21 02:45:30;;;;;;;6.07;1.30;;;2.90;99.90;;;;;;4986474;28;20058;-77
2022/01/21 02:47:55;;;;;;;2.45;0.47;;;2.90;99.90;;;;;;4987534;28;20049;-77
2022/01/21 02:50:21;;;;;;;5.57;0.70;;;2.90;99.90;;;;;;4988978;28;20031;-76
2022/01/21 02:52:57;;;;;;;4.72;0.82;;;2.90;99.90;;;;;;4988482;28;20041;-77
2022/01/21 02:55:24;;;;;;;8.82;0.82;;;2.80;99.90;;;;;;4990185;28;20046;-78
2022/01/21 02:57:49;;;;;;;5.17;0.80;;;2.80;99.90;;;;;;4988561;28;20015;-77
2022/01/21 03:00:16;;;;;;;5.70;1.02;;;2.90;99.90;;;;;;4985514;28;20054;-77
2022/01/21 03:02:41;;;;;;;8.73;1.23;;;2.90;99.90;;;;;;4987883;28;20031;-77
2022/01/21 03:05:13;;;;;;;7.95;0.85;;;2.90;99.90;;;;;;4986445;28;20193;-77
2022/01/21 03:07:39;;;;;;;2.30;0.43;;;3.00;99.90;;;;;;4986153;28;20033;-78
2022/01/21 03:10:05;;;;;;;7.57;0.95;;;3.00;99.90;;;;;;4979991;28;20023;-76
2022/01/21 03:12:31;;;;;;;1.60;0.20;;;3.00;99.90;;;;;;4977014;28;20045;-78
2022/01/21 03:14:57;;;;;;;3.95;0.65;;;3.00;99.90;;;;;;4976628;28;20479;-77
2022/01/21 03:17:23;;;;;;;6.88;1.58;;;3.00;99.90;;;;;;4975571;28;20030;-77
2022/01/21 03:19:48;;;;;;;8.38;0.82;;;2.90;99.90;;;;;;4975861;28;20121;-77
2022/01/21 03:22:14;;;;;;;4.35;0.75;;;2.90;99.90;;;;;;4974429;28;20402;-77
2022/01/21 03:24:40;;;;;;;6.32;0.50;;;3.00;99.90;;;;;;4975144;28;20117;-77
2022/01/21 03:27:05;;;;;;;7.05;0.90;;;3.00;99.90;;;;;;4975519;28;20041;-76
2022/01/21 03:29:31;;;;;;;5.45;0.85;;;2.90;99.90;;;;;;4973515;28;20042;-76
2022/01/21 03:31:57;;;;;;;2.30;0.95;;;2.90;99.90;;;;;;4973112;28;20479;-77
2022/01/21 03:34:23;;;;;;;4.55;0.93;;;2.90;99.90;;;;;;4974608;28;20034;-76
2022/01/21 03:36:49;;;;;;;8.43;0.95;;;2.90;99.90;;;;;;4974317;28;20030;-76
2022/01/21 03:39:16;;;;;;;1.95;0.73;;;2.90;99.90;;;;;;4975639;28;20019;-75
2022/01/21 03:41:42;;;;;;;5.45;0.57;;;2.90;99.90;;;;;;4978591;28;20029;-75
2022/01/21 03:44:08;;;;;;;4.65;0.80;;;2.90;99.90;;;;;;4977579;28;20085;-76
2022/01/21 03:46:34;;;;;;;3.60;0.50;;;2.90;99.90;;;;;;4978115;28;20550;-76
2022/01/21 03:49:02;;;;;;;3.90;0.90;;;2.80;99.90;;;;;;4978496;28;20050;-76
2022/01/21 03:51:28;;;;;;;3.83;0.60;;;2.90;99.90;;;;;;4976612;28;20049;-77
2022/01/21 03:53:55;;;;;;;5.93;0.70;;;2.90;99.90;;;;;;4978565;28;20023;-76
2022/01/21 03:56:22;;;;;;;4.32;0.52;;;2.90;99.90;;;;;;4975980;28;20035;-76
2022/01/21 03:58:48;;;;;;;6.07;1.20;;;3.00;99.90;;;;;;4976193;28;20513;-76
2022/01/21 04:01:13;;;;;;;3.10;0.47;;;3.00;99.90;;;;;;4976982;28;20031;-77
2022/01/21 04:03:39;;;;;;;9.15;0.93;;;3.00;99.90;;;;;;4976888;28;20542;-77
2022/01/21 04:06:05;;;;;;;2.05;0.60;;;3.10;99.90;;;;;;4978316;28;20038;-77
2022/01/21 04:08:31;;;;;;;4.88;0.47;;;3.10;99.90;;;;;;4977244;28;20039;-77
2022/01/21 04:10:56;;;;;;;2.50;0.45;;;3.10;99.90;;;;;;4978286;28;20034;-78
2022/01/21 04:13:23;;;;;;;4.40;0.60;;;3.10;99.90;;;;;;4978150;28;20023;-77
2022/01/21 04:15:52;;;;;;;3.20;0.50;;;3.00;99.90;;;;;;4978091;28;20272;-76
2022/01/21 04:18:19;;;;;;;8.20;0.52;;;3.00;99.90;;;;;;4976843;28;20035;-76
2022/01/21 04:20:47;;;;;;;4.50;0.85;;;3.00;99.90;;;;;;4976332;28;20027;-77
2022/01/21 04:23:13;;;;;;;9.43;0.60;;;3.00;99.90;;;;;;4977382;28;20513;-76
2022/01/21 04:25:40;;;;;;;2.60;0.60;;;3.00;99.90;;;;;;4975822;28;20027;-76
2022/01/21 04:28:07;;;;;;;6.60;0.60;;;3.10;99.90;;;;;;4976105;28;20483;-77
2022/01/21 04:30:33;;;;;;;0.52;0.40;;;3.10;99.90;;;;;;4976092;28;20060;-75
2022/01/21 04:32:59;;;;;;;1.38;0.55;;;3.10;99.90;;;;;;4977177;28;20034;-76
2022/01/21 04:35:24;;;;;;;1.45;0.55;;;3.00;99.90;;;;;;4976362;28;20420;-77
2022/01/21 04:37:55;;;;;;;1.73;0.52;;;3.00;99.90;;;;;;4977343;28;20030;-76
2022/01/21 04:40:24;;;;;;;5.22;0.73;;;3.00;99.90;;;;;;4977456;28;20451;-77
2022/01/21 04:48:18;;;;;;;11.88;1.42;;;2.90;99.90;;;;;;4977084;28;20102;-77
2022/01/21 04:50:58;;;;;;;6.47;0.52;;;3.00;99.90;;;;;;4976196;28;20077;-78
2022/01/21 04:53:26;;;;;;;1.80;0.50;;;3.00;99.90;;;;;;4957636;28;20035;-77
2022/01/21 04:55:52;;;;;;;5.80;0.47;;;3.00;99.90;;;;;;4974420;28;20023;-76
2022/01/21 04:58:19;;;;;;;4.90;0.80;;;3.10;99.90;;;;;;4976788;28;20027;-77
2022/01/21 05:00:44;;;;;;;3.97;0.57;;;3.20;99.90;;;;;;4976173;28;20035;-76
2022/01/21 05:03:11;;;;;;;1.48;0.70;;;3.30;99.90;;;;;;4976881;28;20074;-77
2022/01/21 05:05:37;;;;;;;6.03;1.10;;;3.30;99.90;;;;;;4975184;28;20038;-77
2022/01/21 05:08:07;;;;;;;8.27;0.73;;;3.30;99.90;;;;;;4975627;28;20018;-77
2022/01/21 05:10:34;;;;;;;3.95;0.70;;;3.30;99.90;;;;;;4976314;28;20122;-77
2022/01/21 05:13:00;;;;;;;2.70;0.68;;;3.30;99.90;;;;;;4977155;28;20030;-77
2022/01/21 05:15:45;;;;;;;8.25;0.77;;;3.40;99.90;;;;;;4975859;28;20031;-77
2022/01/21 05:18:11;;;;;;;3.83;0.82;;;3.50;99.90;;;;;;4970733;28;20403;-77
2022/01/21 05:20:37;;;;;;;5.45;0.65;;;3.50;99.90;;;;;;4976918;28;20026;-76
2022/01/21 05:23:02;;;;;;;4.85;0.80;;;3.50;99.90;;;;;;4976710;28;20029;-77
2022/01/21 05:25:28;;;;;;;10.50;0.88;;;3.60;99.90;;;;;;4975081;28;20045;-76
2022/01/21 05:27:58;;;;;;;3.20;0.77;;;3.60;99.90;;;;;;4975992;28;20019;-76
2022/01/21 05:30:23;;;;;;;9.77;1.75;;;3.60;99.90;;;;;;4974500;28;20090;-76
2022/01/21 05:32:49;;;;;;;9.68;0.80;;;3.70;99.90;;;;;;4975949;28;20103;-76
2022/01/21 05:35:15;;;;;;;8.25;1.60;;;3.60;99.90;;;;;;4975959;28;20027;-75
2022/01/21 05:37:40;;;;;;;7.43;0.85;;;3.60;99.90;;;;;;4975942;28;20030;-76
2022/01/21 05:40:10;;;;;;;10.57;1.05;;;3.60;99.90;;;;;;4975387;28;20109;-77
2022/01/21 05:42:36;;;;;;;5.40;0.93;;;3.60;99.90;;;;;;4975736;28;20035;-76
2022/01/21 05:47:31;;;;;;;13.00;0.95;;;3.60;99.90;;;;;;4976021;28;20039;-77
2022/01/21 05:49:57;;;;;;;8.82;0.90;;;3.60;99.90;;;;;;4975381;28;20039;-77
2022/01/21 05:52:33;;;;;;;9.82;1.20;;;3.70;99.90;;;;;;4975413;28;20039;-77
2022/01/21 05:54:59;;;;;;;5.95;0.75;;;3.70;99.90;;;;;;4974188;28;20384;-76
2022/01/21 05:57:24;;;;;;;8.50;1.00;;;3.70;99.90;;;;;;4974230;28;20126;-76
2022/01/21 05:59:50;;;;;;;4.30;1.00;;;3.70;99.90;;;;;;4974209;28;20055;-76
2022/01/21 06:02:16;;;;;;;4.28;1.00;;;3.60;99.90;;;;;;4974889;28;20125;-77
2022/01/21 06:04:46;;;;;;;2.15;1.08;;;3.50;99.90;;;;;;4971549;28;20218;-77
2022/01/21 06:07:12;;;;;;;8.25;1.30;;;3.50;99.90;;;;;;4974687;28;20027;-77
2022/01/21 06:09:38;;;;;;;3.53;1.17;;;3.40;99.90;;;;;;4974020;28;20023;-76
2022/01/21 06:12:07;;;;;;;5.53;1.00;;;3.40;99.90;;;;;;4973653;28;20031;-76
2022/01/21 06:14:32;;;;;;;6.55;1.00;;;3.40;99.90;;;;;;4975389;28;20536;-77
2022/01/21 06:16:58;;;;;;;11.10;1.95;;;3.40;99.90;;;;;;4974922;28;20026;-77
2022/01/21 06:19:23;;;;;;;6.72;1.15;;;3.40;99.90;;;;;;4973955;28;20026;-77
2022/01/21 06:21:49;;;;;;;8.00;1.00;;;3.40;99.90;;;;;;4974205;28;20034;-77
2022/01/21 06:24:15;;;;;;;2.25;1.10;;;3.40;99.90;;;;;;4974790;28;20392;-77
2022/01/21 06:26:40;;;;;;;4.03;1.10;;;3.40;99.90;;;;;;4973760;28;20027;-76
2022/01/21 06:29:06;;;;;;;2.95;0.82;;;3.40;99.90;;;;;;4973234;28;20455;-76
2022/01/21 06:31:32;;;;;;;6.03;0.98;;;3.30;99.90;;;;;;4974395;28;20031;-75
2022/01/21 06:33:58;;;;;;;6.88;1.05;;;3.40;99.90;;;;;;4973444;28;20452;-78
2022/01/21 06:36:24;;;;;;;7.70;2.05;;;3.40;99.90;;;;;;4974773;28;20054;-76
2022/01/21 06:38:49;;;;;;;6.60;1.05;;;3.40;99.90;;;;;;4973249;28;20058;-79
2022/01/21 06:41:15;;;;;;;4.15;1.20;;;3.50;99.90;;;;;;4972621;28;20478;-76
2022/01/21 06:43:42;;;;;;;2.17;0.93;;;3.50;99.90;;;;;;4974377;28;20114;-76
2022/01/21 06:46:09;;;;;;;10.75;1.67;;;3.50;99.90;;;;;;4957983;28;20074;-76
2022/01/21 06:48:35;;;;;;;3.78;0.82;;;3.50;99.90;;;;;;4973929;28;20039;-77
2022/01/21 06:51:03;;;;;;;2.95;0.73;;;3.50;99.90;;;;;;4974517;28;20546;-77
2022/01/21 06:53:29;;;;;;;7.15;1.25;;;3.50;99.90;;;;;;4974705;28;20125;-77
2022/01/21 06:55:55;;;;;;;12.02;1.00;;;3.50;99.90;;;;;;4973592;28;20455;-78
2022/01/21 06:58:21;;;;;;;2.58;0.85;;;3.50;99.90;;;;;;4975121;28;20097;-77
2022/01/21 07:00:46;;;;;;;1.80;1.00;;;3.60;99.90;;;;;;4974275;28;20030;-78
2022/01/21 07:03:12;;;;;;;4.57;1.20;;;3.60;99.90;;;;;;4974534;28;20023;-78
2022/01/21 07:05:38;;;;;;;7.70;0.80;;;3.50;99.90;;;;;;4974889;28;20031;-77
2022/01/21 07:08:04;;;;;;;3.90;1.00;;;3.50;99.90;;;;;;4974263;28;20472;-77
2022/01/21 07:10:30;;;;;;;5.32;0.85;;;3.50;99.90;;;;;;4973130;28;20380;-78
2022/01/21 07:12:57;;;;;;;9.23;2.15;;;3.50;99.90;;;;;;4972995;28;20050;-76
2022/01/21 07:15:23;;;;;;;4.07;1.45;;;3.50;99.90;;;;;;4973888;28;20512;-77
2022/01/21 07:17:52;;;;;;;10.13;1.83;;;3.40;99.90;;;;;;4974462;28;20061;-79
2022/01/21 07:20:18;;;;;;;6.95;1.05;;;3.30;99.90;;;;;;4974114;28;20491;-77
2022/01/21 07:22:44;;;;;;;5.97;1.10;;;3.40;99.90;;;;;;4973676;28;20043;-77
2022/01/21 07:25:10;;;;;;;6.57;1.05;;;3.40;99.90;;;;;;4974040;28;20026;-76
2022/01/21 07:27:36;;;;;;;5.65;1.05;;;3.40;99.90;;;;;;4973653;28;20050;-76
2022/01/21 07:30:04;;;;;;;9.48;1.52;;;3.40;99.90;;;;;;4974395;28;20039;-76
2022/01/21 07:32:29;;;;;;;5.55;1.30;;;3.40;99.90;;;;;;4972557;28;20041;-77
2022/01/21 07:34:55;;;;;;;2.10;0.75;;;3.40;99.90;;;;;;4974162;28;20019;-77
2022/01/21 07:37:21;;;;;;;2.95;1.33;;;3.40;99.90;;;;;;4973925;28;20110;-77
2022/01/21 07:39:46;;;;;;;10.73;1.98;;;3.40;99.90;;;;;;4974411;28;20023;-77
2022/01/21 07:42:12;;;;;;;6.30;0.73;;;3.40;99.90;;;;;;4974131;28;20484;-78
2022/01/21 07:44:38;;;;;;;4.97;0.80;;;3.30;99.90;;;;;;4973895;28;20051;-77
2022/01/21 07:47:05;;;;;;;13.82;1.50;;;3.30;99.90;;;;;;4973665;28;20034;-77
2022/01/21 07:49:33;;;;;;;3.83;0.73;;;3.40;99.90;;;;;;4974766;28;20098;-77
2022/01/21 07:52:00;;;;;;;4.57;1.33;;;3.40;99.90;;;;;;4973856;28;20122;-76
2022/01/21 07:54:27;;;;;;;4.72;1.13;;;3.40;99.90;;;;;;4974265;28;20038;-77
2022/01/21 07:56:53;;;;;;;3.65;1.10;;;3.40;99.90;;;;;;4972467;28;20046;-76
2022/01/21 07:59:18;;;;;;;10.48;0.82;;;3.40;99.90;;;;;;4972149;28;20517;-77
2022/01/21 08:01:44;;;;;;;3.63;1.30;;;3.40;99.90;;;;;;4972930;28;20476;-77
2022/01/21 08:04:11;;;;;;;6.75;1.50;;;3.40;99.90;;;;;;4972906;28;20522;-78
2022/01/21 08:06:37;;;;;;;1.70;0.90;;;3.50;99.90;;;;;;4973379;28;20023;-77
2022/01/21 08:09:04;;;;;;;5.82;0.93;;;3.50;99.90;;;;;;4973622;28;20476;-77
2022/01/21 08:11:30;;;;;;;4.30;1.38;;;3.50;99.90;;;;;;4972346;28;20054;-76
2022/01/21 08:13:55;;;;;;;6.88;1.88;;;3.50;99.90;;;;;;4973093;28;20069;-77
2022/01/21 08:16:21;;;;;;;3.42;1.52;;;3.50;99.90;;;;;;4973927;28;20045;-76
2022/01/21 08:18:48;;;;;;;3.10;0.88;;;3.50;99.90;;;;;;4969966;28;20077;-76
2022/01/21 08:21:18;;;;;;;7.30;2.40;;;3.50;99.90;;;;;;4973180;28;20395;-76
2022/01/21 08:23:49;;;;;;;9.15;1.73;;;3.50;99.90;;;;;;4972895;28;20082;-77
2022/01/21 08:26:19;;;;;;;6.80;1.55;;;3.60;99.90;;;;;;4968619;28;20035;-75
2022/01/21 08:28:45;;;;;;;15.48;2.15;;;3.70;99.90;;;;;;4977396;28;20027;-78
2022/01/21 08:31:11;;;;;;;7.40;1.45;;;3.80;99.90;;;;;;4977561;28;20030;-74
2022/01/21 08:33:39;;;;;;;6.57;1.25;;;3.90;99.90;;;;;;4976662;28;20031;-76
2022/01/21 08:36:07;;;;;;;6.80;1.30;;;3.90;99.90;;;;;;4959804;28;20035;-75
2022/01/21 08:38:33;;;;;;;;;;;4.00;99.90;;;;;;4976541;28;20277;-76
2022/01/21 08:40:59;;;;;;;2.95;1.20;;;4.00;99.90;;;;;;4976181;28;20306;-75
2022/01/21 08:43:26;;;;;;;2.35;1.17;;;4.10;99.90;;;;;;4975749;28;20037;-76
2022/01/21 08:45:53;;;;;;;7.40;1.13;;;4.30;99.90;;;;;;4977404;28;20077;-78
2022/01/21 08:48:19;;;;;;;6.68;1.60;;;4.50;99.90;;;;;;4977900;28;20034;-78
2022/01/21 08:50:45;;;;;;;3.90;1.27;;;4.70;99.90;;;;;;4977419;28;20035;-78
2022/01/21 08:55:56;;;;;;;3.58;0.98;;;5.00;99.90;;;;;;4983351;28;20042;-76
2022/01/21 08:58:21;;;;;;;11.30;1.67;;;5.10;99.90;;;;;;4976935;28;20029;-75
2022/01/21 09:00:47;;;;;;;12.98;1.10;;;5.10;99.90;;;;;;4986853;28;20030;-80
2022/01/21 09:03:13;;;;;;;12.20;2.13;;;5.10;99.90;;;;;;4999607;28;20026;-81
2022/01/21 09:05:38;;;;;;;7.75;1.15;;;5.10;99.90;;;;;;5000901;28;20023;-81
2022/01/21 09:08:04;;;;;;;2.58;0.82;;;5.10;99.90;;;;;;5001207;28;20031;-82
2022/01/21 09:10:30;;;;;;;6.38;1.17;;;5.10;99.90;;;;;;5001146;28;20026;-81
2022/01/21 09:12:56;;;;;;;5.07;1.00;;;5.10;99.90;;;;;;4999729;28;20019;-80
2022/01/21 09:15:25;;;;;;;6.28;1.30;;;5.20;99.90;;;;;;5001391;28;20015;-81
2022/01/21 09:17:51;;;;;;;11.32;2.10;;;5.10;99.90;;;;;;4998677;28;20038;-79
2022/01/21 09:20:17;;;;;;;6.80;1.13;;;5.10;99.90;;;;;;4999649;28;20003;-77
2022/01/21 09:22:43;;;;;;;5.30;1.67;;;5.10;99.90;;;;;;4996902;28;20078;-81
2022/01/21 09:25:09;;;;;;;9.25;1.35;;;5.10;99.90;;;;;;4999988;28;20035;-81
2022/01/21 09:27:36;;;;;;;15.20;1.52;;;5.20;99.90;;;;;;5000221;28;20014;-82
2022/01/21 09:30:05;;;;;;;18.92;1.98;;;5.30;99.90;;;;;;5000252;28;20011;-84
2022/01/21 09:32:32;;;;;;;14.90;1.30;;;5.50;99.90;;;;;;5000900;28;20094;-84
2022/01/21 09:34:59;;;;;;;6.72;1.15;;;5.70;99.90;;;;;;5000430;28;20090;-78
2022/01/21 09:37:24;;;;;;;13.52;1.83;;;5.90;99.90;;;;;;4994735;28;20118;-83
2022/01/21 09:39:50;;;;;;;16.77;1.92;;;6.00;99.90;;;;;;5000143;28;20022;-81
2022/01/21 09:42:16;;;;;;;7.68;1.60;;;5.90;99.90;;;;;;5000461;28;20037;-82
2022/01/21 09:44:44;;;;;;;13.82;1.92;;;5.90;99.90;;;;;;5000042;28;20035;-84
2022/01/21 09:47:14;;;;;;;8.73;1.15;;;5.90;99.90;;;;;;5000622;28;20023;-85
2022/01/21 09:49:42;;;;;;;10.77;1.55;;;6.00;99.90;;;;;;5000683;28;20010;-83
2022/01/21 09:52:11;;;;;;;15.00;2.28;;;6.10;99.90;;;;;;5000332;28;20027;-85
2022/01/21 09:54:38;;;;;;;8.40;2.15;;;6.20;99.90;;;;;;4999599;28;20018;-83
2022/01/21 09:57:06;;;;;;;16.40;1.97;;;6.30;99.90;;;;;;4995823;28;20092;-76
2022/01/21 09:59:35;;;;;;;17.20;1.27;;;6.30;99.90;;;;;;4995725;28;20345;-78
2022/01/21 10:02:05;;;;;;;4.80;1.25;;;6.30;99.90;;;;;;4994945;28;20018;-79
2022/01/21 10:04:33;;;;;;;4.93;1.00;;;6.30;99.90;;;;;;4990454;28;20090;-79
2022/01/21 10:07:01;;;;;;;10.75;1.70;;;6.20;99.90;;;;;;4984640;28;20038;-77
2022/01/21 10:09:28;;;;;;;9.90;1.38;;;6.20;99.90;;;;;;4980956;28;20035;-79
2022/01/21 10:11:56;;;;;;;13.20;1.20;;;6.20;99.90;;;;;;4980283;28;20042;-78
2022/01/21 10:14:24;;;;;;;15.20;2.85;;;6.30;99.90;;;;;;4978265;28;20022;-79
2022/01/21 10:16:50;;;;;;;4.88;1.33;;;6.40;99.90;;;;;;4977156;28;20455;-79
2022/01/21 10:19:27;;;;;;;12.00;1.42;;;6.70;99.90;;;;;;4975964;28;20022;-79
2022/01/21 10:22:06;;;;;;;12.70;2.50;;;6.90;99.90;;;;;;4977923;28;20089;-79
2022/01/21 10:24:34;;;;;;;11.73;1.73;;;6.90;99.90;;;;;;4975475;28;20015;-78
2022/01/21 10:27:00;;;;;;;4.13;0.90;;;6.80;99.90;;;;;;4974904;28;20034;-78
2022/01/21 10:29:39;;;;;;;16.73;1.35;;;6.90;99.90;;;;;;4975591;28;20078;-79
2022/01/21 10:32:07;;;;;;;11.05;1.88;;;6.90;99.90;;;;;;4975184;28;20039;-79
2022/01/21 10:34:40;;;;;;;11.65;1.67;;;6.90;99.90;;;;;;4975652;28;20042;-78
2022/01/21 10:37:29;;;;;;;9.77;1.20;;;6.90;99.90;;;;;;4975341;28;20052;-78
2022/01/21 10:40:08;;;;;;;11.63;1.17;;;7.10;99.90;;;;;;4970942;28;20058;-79
2022/01/21 10:42:35;;;;;;;9.38;2.10;;;7.40;99.90;;;;;;4975126;28;20034;-78
2022/01/21 10:45:03;;;;;;;14.48;2.80;;;7.50;99.90;;;;;;4975846;28;20051;-78
2022/01/21 10:47:33;;;;;;;10.57;1.25;;;7.60;99.90;;;;;;4975745;28;20062;-78
2022/01/21 10:49:59;;;;;;;6.55;1.33;;;7.60;99.90;;;;;;4971976;28;20027;-79
2022/01/21 10:52:37;;;;;;;9.43;1.50;;;7.60;99.90;;;;;;4975389;28;20081;-78
2022/01/21 10:55:05;;;;;;;7.18;1.83;;;7.70;99.90;;;;;;4972682;28;20038;-79
2022/01/21 10:57:32;;;;;;;3.58;0.82;;;7.60;99.90;;;;;;4974792;28;20382;-79
2022/01/21 11:00:09;;;;;;;8.10;1.70;;;7.60;99.90;;;;;;4974248;28;20062;-79
2022/01/21 11:02:44;;;;;;;10.52;1.65;;;7.60;99.90;;;;;;4974259;28;20395;-78
2022/01/21 11:05:20;;;;;;;7.93;1.25;;;7.60;99.90;;;;;;4976297;28;20058;-78
2022/01/21 11:07:49;;;;;;;6.28;1.40;;;7.60;99.90;;;;;;4974749;28;20066;-78
2022/01/21 11:10:36;;;;;;;10.48;1.55;;;7.60;99.90;;;;;;4975608;28;20038;-79
2022/01/21 11:13:18;;;;;;;3.22;1.17;;;7.40;99.90;;;;;;4955727;28;20039;-79
2022/01/21 11:15:48;;;;;;;3.83;1.15;;;7.50;99.90;;;;;;4973328;28;20579;-77
2022/01/21 11:18:18;;;;;;;5.47;0.77;;;7.50;99.90;;;;;;4974237;28;20475;-79
2022/01/21 11:20:48;;;;;;;15.60;1.30;;;7.60;99.90;;;;;;4974767;28;20395;-79
2022/01/21 11:23:14;;;;;;;8.43;0.80;;;7.60;99.90;;;;;;4973465;28;20376;-80
2022/01/21 11:26:01;;;;;;;15.68;1.17;;;7.60;99.90;;;;;;4975098;28;20041;-78
2022/01/21 11:28:50;;;;;;;5.88;1.30;;;7.60;99.90;;;;;;4975045;28;20118;-78
2022/01/21 11:31:21;;;;;;;10.35;1.15;;;7.60;99.90;;;;;;4975538;28;20496;-79
2022/01/21 11:33:47;;;;;;;3.60;1.33;;;7.60;99.90;;;;;;4975433;28;20046;-79
2022/01/21 11:36:14;;;;;;;7.82;1.90;;;7.40;99.90;;;;;;4974851;28;20353;-78
2022/01/21 11:38:43;;;;;;;6.30;1.50;;;7.40;99.90;;;;;;4975425;28;20058;-79
2022/01/21 11:41:09;;;;;;;4.70;1.05;;;7.50;99.90;;;;;;4975251;28;20117;-79
2022/01/21 11:43:37;;;;;;;6.90;1.00;;;7.60;99.90;;;;;;4973604;28;20489;-79
2022/01/21 11:48:58;;;;;;;14.18;1.10;;;7.50;99.90;;;;;;4973849;28;20558;-78
2022/01/21 11:51:32;;;;;;;5.95;1.67;;;7.60;99.90;;;;;;4970521;28;20068;-78
2022/01/21 11:54:04;;;;;;;8.60;1.55;;;7.50;99.90;;;;;;4974542;28;20039;-78
2022/01/21 11:56:46;;;;;;;9.40;1.75;;;7.60;99.90;;;;;;4974870;28;20131;-78
2022/01/21 12:01:53;;;;;;;5.45;1.17;;;8.20;99.90;;;;;;4977075;28;20023;-78
2022/01/21 12:04:29;;;;;;;;;;;8.50;99.90;;;;;;4979882;28;20439;-78
2022/01/21 12:06:59;;;;;;;11.50;1.67;;;8.40;99.90;;;;;;4976812;28;19937;-76
2022/01/21 12:09:57;;;;;;;9.00;1.45;;;8.20;99.90;;;;;;4977296;28;20506;-78
2022/01/21 12:12:23;;;;;;;;;;;8.20;99.90;;;;;;4965054;28;20499;-77
2022/01/21 12:14:56;;;;;;;17.75;1.15;;;7.90;99.90;;;;;;4978208;28;19949;-76
2022/01/21 12:17:46;;;;;;;11.60;1.27;;;7.90;99.90;;;;;;4978107;28;20023;-78
2022/01/21 12:20:12;;;;;;;10.27;1.40;;;7.80;99.90;;;;;;4976993;28;20027;-78
2022/01/21 12:22:38;;;;;;;10.48;1.38;;;7.70;99.90;;;;;;4977146;28;20408;-78
2022/01/21 12:25:08;;;;;;;13.40;1.75;;;7.70;99.90;;;;;;4977385;28;20031;-78
2022/01/21 12:27:35;;;;;;;13.48;1.80;;;7.60;99.90;;;;;;4976109;28;20022;-78
2022/01/21 12:30:28;;;;;;;5.50;1.10;;;7.60;99.90;;;;;;4975911;28;20035;-78
2022/01/21 12:33:01;;;;;;;10.90;0.85;;;7.40;99.90;;;;;;4976847;28;20062;-78
2022/01/21 12:35:27;;;;;;;6.13;1.20;;;7.30;99.90;;;;;;4976175;28;20050;-78
2022/01/21 12:40:59;;;;;;;13.52;0.80;;;7.20;99.90;;;;;;4977445;28;20058;-79
2022/01/21 12:43:38;;;;;;;7.28;1.90;;;7.10;99.90;;;;;;4976554;28;20034;-79
2022/01/21 12:46:10;;;;;;;4.22;1.00;;;7.10;99.90;;;;;;4991301;28;20057;-79
2022/01/21 12:48:37;;;;;;;11.10;2.50;;;7.20;99.90;;;;;;4974602;28;20573;-79
2022/01/21 12:51:15;;;;;;;13.68;1.52;;;7.10;99.90;;;;;;4976881;28;20122;-79
2022/01/21 12:56:42;;;;;;;15.82;2.28;;;7.20;99.90;;;;;;4978810;28;20062;-77
2022/01/21 12:59:14;;;;;;;10.63;1.92;;;7.30;99.90;;;;;;4977323;28;20027;-79
2022/01/21 13:01:39;;;;;;;9.88;1.25;;;7.40;99.90;;;;;;4976475;28;20026;-78
2022/01/21 13:07:51;;;;;;;11.57;1.75;;;7.40;99.90;;;;;;4977415;28;20423;-78
2022/01/21 13:10:28;;;;;;;4.45;0.88;;;7.60;99.90;;;;;;4976514;28;20126;-78
2022/01/21 13:15:45;;;;;;;7.43;1.77;;;7.70;99.90;;;;;;4978653;28;20042;-79
2022/01/21 13:18:23;;;;;;;4.75;0.98;;;7.70;99.90;;;;;;4975793;28;20469;-77
2022/01/21 13:20:51;;;;;;;10.70;1.13;;;7.60;99.90;;;;;;4976687;28;20461;-79
2022/01/21 13:23:29;;;;;;;;;;;7.50;99.90;;;;;;4975807;28;20039;-78
2022/01/21 13:26:25;;;;;;;11.45;1.15;;;7.50;99.90;;;;;;4976004;28;20290;-78
2022/01/21 13:29:09;;;;;;;12.02;1.30;;;7.50;99.90;;;;;;4977476;28;20035;-79
2022/01/21 13:31:48;;;;;;;9.10;1.30;;;7.40;99.90;;;;;;4976033;28;20058;-78
2022/01/21 13:34:18;;;;;;;6.80;1.02;;;7.40;99.90;;;;;;4975650;28;20035;-79
2022/01/21 13:36:52;;;;;;;5.18;1.40;;;7.40;99.90;;;;;;4975775;28;20046;-78
2022/01/21 13:39:21;;;;;;;7.20;1.23;;;7.50;99.90;;;;;;4976741;28;20492;-78
2022/01/21 13:41:54;;;;;;;6.30;1.73;;;7.50;99.90;;;;;;4975202;28;20019;-77
2022/01/21 13:44:45;;;;;;;4.72;1.30;;;7.50;99.90;;;;;;4975376;28;20106;-78
2022/01/21 13:47:31;;;;;;;8.57;1.30;;;7.60;99.90;;;;;;4971524;28;20089;-78
2022/01/21 13:50:11;;;;;;;4.25;1.00;;;7.60;99.90;;;;;;4974947;28;20034;-78
2022/01/21 13:52:53;;;;;;;5.15;0.80;;;7.70;99.90;;;;;;4975332;28;20034;-80
2022/01/21 13:55:25;;;;;;;4.82;1.23;;;7.80;99.90;;;;;;4975898;28;20086;-79
2022/01/21 13:57:52;;;;;;;6.53;1.15;;;7.80;99.90;;;;;;4973237;28;20019;-79
2022/01/21 14:00:31;;;;;;;11.43;1.25;;;7.70;99.90;;;;;;4977506;28;20514;-80
2022/01/21 14:03:30;;;;;;;8.40;1.55;;;7.60;99.90;;;;;;4975860;28;20034;-80
2022/01/21 14:06:07;;;;;;;7.50;1.52;;;7.50;99.90;;;;;;4982079;28;20496;-79
2022/01/21 14:08:38;;;;;;;13.15;1.67;;;7.50;99.90;;;;;;4976731;28;20027;-79
2022/01/21 14:11:09;;;;;;;8.55;1.83;;;7.40;99.90;;;;;;4974123;28;20535;-79
2022/01/21 14:14:00;;;;;;;5.50;1.10;;;7.30;99.90;;;;;;4973079;28;20093;-78
2022/01/21 14:16:30;;;;;;;4.18;0.73;;;7.10;99.90;;;;;;4973702;28;20030;-78